sensor_id;sensor_type;location;lat;lon;timestamp;temperature;humidity
71175;DHT22;58876;51.994;4.472;2022-12-04T00:01:05;3.00;72.30
71175;DHT22;58876;51.994;4.472;2022-12-04T00:03:32;3.01;72.22
71175;DHT22;58876;51.994;4.472;2022-12-04T00:06:13;2.87;72.70
71175;DHT22;58876;51.994;4.472;2022-12-04T00:08:39;2.82;72.87
71175;DHT22;58876;51.994;4.472;2022-12-04T00:11:06;2.85;72.73
71175;DHT22;58876;51.994;4.472;2022-12-04T00:13:32;2.73;72.90
71175;DHT22;58876;51.994;4.472;2022-12-04T00:15:58;2.65;73.07
71175;DHT22;58876;51.994;4.472;2022-12-04T00:18:25;2.65;73.60
71175;DHT22;58876;51.994;4.472;2022-12-04T00:20:51;2.69;73.46
71175;DHT22;58876;51.994;4.472;2022-12-04T00:23:16;2.80;73.24
71175;DHT22;58876;51.994;4.472;2022-12-04T00:25:42;2.85;72.72
71175;DHT22;58876;51.994;4.472;2022-12-04T00:28:15;2.89;73.01
71175;DHT22;58876;51.994;4.472;2022-12-04T00:30:42;2.89;73.02
71175;DHT22;58876;51.994;4.472;2022-12-04T00:33:08;2.92;73.30
71175;DHT22;58876;51.994;4.472;2022-12-04T00:35:33;2.89;73.14
71175;DHT22;58876;51.994;4.472;2022-12-04T00:37:59;2.92;72.90
71175;DHT22;58876;51.994;4.472;2022-12-04T00:40:24;2.79;73.11
71175;DHT22;58876;51.994;4.472;2022-12-04T00:42:50;2.82;73.23
71175;DHT22;58876;51.994;4.472;2022-12-04T00:45:15;2.89;73.40
71175;DHT22;58876;51.994;4.472;2022-12-04T00:47:41;2.83;73.25
71175;DHT22;58876;51.994;4.472;2022-12-04T00:50:06;2.87;73.38
71175;DHT22;58876;51.994;4.472;2022-12-04T00:52:32;2.89;73.18
71175;DHT22;58876;51.994;4.472;2022-12-04T00:54:57;2.90;73.03
71175;DHT22;58876;51.994;4.472;2022-12-04T00:57:23;2.85;73.32
71175;DHT22;58876;51.994;4.472;2022-12-04T00:59:48;2.92;73.57
71175;DHT22;58876;51.994;4.472;2022-12-04T01:02:14;2.97;73.36
71175;DHT22;58876;51.994;4.472;2022-12-04T01:04:39;2.93;73.26
71175;DHT22;58876;51.994;4.472;2022-12-04T01:07:05;2.95;73.33
71175;DHT22;58876;51.994;4.472;2022-12-04T01:09:31;2.90;73.54
71175;DHT22;58876;51.994;4.472;2022-12-04T01:11:56;2.92;73.51
71175;DHT22;58876;51.994;4.472;2022-12-04T01:14:22;2.86;74.00
71175;DHT22;58876;51.994;4.472;2022-12-04T01:16:47;2.90;73.72
71175;DHT22;58876;51.994;4.472;2022-12-04T01:19:13;2.92;73.57
71175;DHT22;58876;51.994;4.472;2022-12-04T01:21:39;2.87;73.24
71175;DHT22;58876;51.994;4.472;2022-12-04T01:24:05;2.82;73.39
71175;DHT22;58876;51.994;4.472;2022-12-04T01:26:31;2.80;73.72
71175;DHT22;58876;51.994;4.472;2022-12-04T01:28:57;2.72;73.79
71175;DHT22;58876;51.994;4.472;2022-12-04T01:31:23;2.77;73.63
71175;DHT22;58876;51.994;4.472;2022-12-04T01:33:50;2.83;73.40
71175;DHT22;58876;51.994;4.472;2022-12-04T01:36:20;2.77;73.58
71175;DHT22;58876;51.994;4.472;2022-12-04T01:38:45;2.83;73.64
71175;DHT22;58876;51.994;4.472;2022-12-04T01:41:14;2.86;73.29
71175;DHT22;58876;51.994;4.472;2022-12-04T01:43:41;2.93;73.22
71175;DHT22;58876;51.994;4.472;2022-12-04T01:46:08;2.96;72.85
71175;DHT22;58876;51.994;4.472;2022-12-04T01:51:28;2.69;73.77
71175;DHT22;58876;51.994;4.472;2022-12-04T01:53:59;2.73;73.32
71175;DHT22;58876;51.994;4.472;2022-12-04T01:56:32;2.76;73.53
71175;DHT22;58876;51.994;4.472;2022-12-04T01:59:01;2.85;73.34
71175;DHT22;58876;51.994;4.472;2022-12-04T02:01:33;2.79;73.25
71175;DHT22;58876;51.994;4.472;2022-12-04T02:04:01;2.79;73.42
71175;DHT22;58876;51.994;4.472;2022-12-04T02:06:27;2.80;73.44
71175;DHT22;58876;51.994;4.472;2022-12-04T02:08:52;2.82;73.15
71175;DHT22;58876;51.994;4.472;2022-12-04T02:11:38;2.85;73.26
71175;DHT22;58876;51.994;4.472;2022-12-04T02:14:17;2.82;73.25
71175;DHT22;58876;51.994;4.472;2022-12-04T02:16:56;2.86;73.82
71175;DHT22;58876;51.994;4.472;2022-12-04T02:19:59;2.95;73.36
71175;DHT22;58876;51.994;4.472;2022-12-04T02:28:19;2.87;73.73
71175;DHT22;58876;51.994;4.472;2022-12-04T02:30:52;2.80;73.86
71175;DHT22;58876;51.994;4.472;2022-12-04T02:36:04;2.82;74.11
71175;DHT22;58876;51.994;4.472;2022-12-04T02:38:41;2.87;73.89
71175;DHT22;58876;51.994;4.472;2022-12-04T02:41:41;2.90;73.85
71175;DHT22;58876;51.994;4.472;2022-12-04T02:44:16;2.92;73.65
71175;DHT22;58876;51.994;4.472;2022-12-04T02:46:47;2.89;73.63
71175;DHT22;58876;51.994;4.472;2022-12-04T02:49:24;2.93;73.44
71175;DHT22;58876;51.994;4.472;2022-12-04T02:51:54;2.86;73.67
71175;DHT22;58876;51.994;4.472;2022-12-04T02:54:31;2.83;74.13
71175;DHT22;58876;51.994;4.472;2022-12-04T02:57:02;2.75;74.04
71175;DHT22;58876;51.994;4.472;2022-12-04T02:59:38;2.68;74.50
71175;DHT22;58876;51.994;4.472;2022-12-04T03:02:39;2.65;74.73
71175;DHT22;58876;51.994;4.472;2022-12-04T03:05:09;2.66;74.39
71175;DHT22;58876;51.994;4.472;2022-12-04T03:07:46;2.76;74.25
71175;DHT22;58876;51.994;4.472;2022-12-04T03:10:24;2.77;74.19
71175;DHT22;58876;51.994;4.472;2022-12-04T03:13:08;2.82;74.06
71175;DHT22;58876;51.994;4.472;2022-12-04T03:15:47;2.85;73.76
71175;DHT22;58876;51.994;4.472;2022-12-04T03:18:28;2.80;73.78
71175;DHT22;58876;51.994;4.472;2022-12-04T03:21:02;2.68;74.25
71175;DHT22;58876;51.994;4.472;2022-12-04T03:23:39;2.66;74.51
71175;DHT22;58876;51.994;4.472;2022-12-04T03:26:16;2.68;74.39
71175;DHT22;58876;51.994;4.472;2022-12-04T03:28:54;2.69;74.36
71175;DHT22;58876;51.994;4.472;2022-12-04T03:31:35;2.72;74.40
71175;DHT22;58876;51.994;4.472;2022-12-04T03:34:06;2.80;73.98
71175;DHT22;58876;51.994;4.472;2022-12-04T03:36:36;2.79;73.86
71175;DHT22;58876;51.994;4.472;2022-12-04T03:39:32;2.83;74.11
71175;DHT22;58876;51.994;4.472;2022-12-04T03:42:25;2.85;73.79
71175;DHT22;58876;51.994;4.472;2022-12-04T03:45:01;2.85;74.08
71175;DHT22;58876;51.994;4.472;2022-12-04T03:47:37;2.90;73.89
71175;DHT22;58876;51.994;4.472;2022-12-04T03:53:03;2.90;73.35
71175;DHT22;58876;51.994;4.472;2022-12-04T03:55:31;2.75;73.96
71175;DHT22;58876;51.994;4.472;2022-12-04T03:58:03;2.77;74.31
71175;DHT22;58876;51.994;4.472;2022-12-04T04:00:33;2.89;74.28
71175;DHT22;58876;51.994;4.472;2022-12-04T04:03:24;2.86;74.00
71175;DHT22;58876;51.994;4.472;2022-12-04T04:05:56;2.82;73.82
71175;DHT22;58876;51.994;4.472;2022-12-04T04:08:28;2.86;74.10
71175;DHT22;58876;51.994;4.472;2022-12-04T04:11:18;2.89;73.95
71175;DHT22;58876;51.994;4.472;2022-12-04T04:14:07;2.86;73.86
71175;DHT22;58876;51.994;4.472;2022-12-04T04:16:59;2.69;74.84
71175;DHT22;58876;51.994;4.472;2022-12-04T04:19:50;2.85;74.66
71175;DHT22;58876;51.994;4.472;2022-12-04T04:22:37;2.89;74.04
71175;DHT22;58876;51.994;4.472;2022-12-04T04:25:25;2.87;74.06
71175;DHT22;58876;51.994;4.472;2022-12-04T04:27:56;2.80;74.68
71175;DHT22;58876;51.994;4.472;2022-12-04T04:30:24;2.87;74.58
71175;DHT22;58876;51.994;4.472;2022-12-04T04:35:43;2.93;74.29
71175;DHT22;58876;51.994;4.472;2022-12-04T04:38:27;2.87;74.04
71175;DHT22;58876;51.994;4.472;2022-12-04T04:44:15;2.83;74.36
71175;DHT22;58876;51.994;4.472;2022-12-04T04:46:49;2.77;74.34
71175;DHT22;58876;51.994;4.472;2022-12-04T04:49:20;2.83;74.61
71175;DHT22;58876;51.994;4.472;2022-12-04T04:51:47;2.83;74.43
71175;DHT22;58876;51.994;4.472;2022-12-04T04:54:14;2.86;74.18
71175;DHT22;58876;51.994;4.472;2022-12-04T04:56:43;2.89;74.06
71175;DHT22;58876;51.994;4.472;2022-12-04T04:59:09;2.89;74.04
71175;DHT22;58876;51.994;4.472;2022-12-04T05:01:37;2.96;73.98
71175;DHT22;58876;51.994;4.472;2022-12-04T05:04:04;2.99;73.85
71175;DHT22;58876;51.994;4.472;2022-12-04T05:06:30;3.00;73.86
71175;DHT22;58876;51.994;4.472;2022-12-04T05:08:56;2.95;74.36
71175;DHT22;58876;51.994;4.472;2022-12-04T05:11:21;2.96;74.30
71175;DHT22;58876;51.994;4.472;2022-12-04T05:13:47;2.90;74.51
71175;DHT22;58876;51.994;4.472;2022-12-04T05:16:14;2.93;74.36
71175;DHT22;58876;51.994;4.472;2022-12-04T05:18:40;3.00;74.18
71175;DHT22;58876;51.994;4.472;2022-12-04T05:21:26;3.00;73.83
71175;DHT22;58876;51.994;4.472;2022-12-04T05:23:51;3.03;74.05
71175;DHT22;58876;51.994;4.472;2022-12-04T05:26:16;3.07;74.02
71175;DHT22;58876;51.994;4.472;2022-12-04T05:28:42;2.99;74.12
71175;DHT22;58876;51.994;4.472;2022-12-04T05:31:07;2.99;74.12
71175;DHT22;58876;51.994;4.472;2022-12-04T05:33:33;3.07;74.19
71175;DHT22;58876;51.994;4.472;2022-12-04T05:36:00;3.13;73.99
71175;DHT22;58876;51.994;4.472;2022-12-04T05:38:26;3.08;73.68
71175;DHT22;58876;51.994;4.472;2022-12-04T05:40:52;3.14;73.61
71175;DHT22;58876;51.994;4.472;2022-12-04T05:43:18;3.11;73.59
71175;DHT22;58876;51.994;4.472;2022-12-04T05:45:43;3.14;73.70
71175;DHT22;58876;51.994;4.472;2022-12-04T05:48:09;3.21;73.93
71175;DHT22;58876;51.994;4.472;2022-12-04T05:50:34;3.18;73.96
71175;DHT22;58876;51.994;4.472;2022-12-04T05:52:59;3.16;73.63
71175;DHT22;58876;51.994;4.472;2022-12-04T05:55:25;3.11;73.78
71175;DHT22;58876;51.994;4.472;2022-12-04T05:57:50;3.14;74.13
71175;DHT22;58876;51.994;4.472;2022-12-04T06:00:16;3.10;74.15
71175;DHT22;58876;51.994;4.472;2022-12-04T06:02:42;3.11;74.12
71175;DHT22;58876;51.994;4.472;2022-12-04T06:05:07;3.08;74.26
71175;DHT22;58876;51.994;4.472;2022-12-04T06:07:33;3.08;74.36
71175;DHT22;58876;51.994;4.472;2022-12-04T06:09:58;3.16;74.06
71175;DHT22;58876;51.994;4.472;2022-12-04T06:12:24;3.10;74.27
71175;DHT22;58876;51.994;4.472;2022-12-04T06:14:49;3.01;74.29
71175;DHT22;58876;51.994;4.472;2022-12-04T06:17:15;3.07;74.58
71175;DHT22;58876;51.994;4.472;2022-12-04T06:19:40;3.07;74.63
71175;DHT22;58876;51.994;4.472;2022-12-04T06:22:06;3.13;74.61
71175;DHT22;58876;51.994;4.472;2022-12-04T06:24:31;3.18;74.28
71175;DHT22;58876;51.994;4.472;2022-12-04T06:26:58;3.21;74.19
71175;DHT22;58876;51.994;4.472;2022-12-04T06:29:24;3.16;74.54
71175;DHT22;58876;51.994;4.472;2022-12-04T06:31:49;3.13;74.49
71175;DHT22;58876;51.994;4.472;2022-12-04T06:34:15;3.16;74.50
71175;DHT22;58876;51.994;4.472;2022-12-04T06:36:40;3.17;74.60
71175;DHT22;58876;51.994;4.472;2022-12-04T06:39:06;3.18;74.53
71175;DHT22;58876;51.994;4.472;2022-12-04T06:41:32;3.16;74.14
71175;DHT22;58876;51.994;4.472;2022-12-04T06:43:57;2.99;74.74
71175;DHT22;58876;51.994;4.472;2022-12-04T06:46:29;2.95;75.49
71175;DHT22;58876;51.994;4.472;2022-12-04T06:48:56;3.01;75.38
71175;DHT22;58876;51.994;4.472;2022-12-04T06:51:31;3.10;75.36
71175;DHT22;58876;51.994;4.472;2022-12-04T06:53:57;3.01;75.34
71175;DHT22;58876;51.994;4.472;2022-12-04T06:56:25;3.08;75.25
71175;DHT22;58876;51.994;4.472;2022-12-04T06:58:54;3.17;75.06
71175;DHT22;58876;51.994;4.472;2022-12-04T07:01:23;3.17;75.03
71175;DHT22;58876;51.994;4.472;2022-12-04T07:03:49;3.11;74.90
71175;DHT22;58876;51.994;4.472;2022-12-04T07:06:23;3.10;75.09
71175;DHT22;58876;51.994;4.472;2022-12-04T07:08:56;3.07;75.25
71175;DHT22;58876;51.994;4.472;2022-12-04T07:11:23;3.04;75.14
71175;DHT22;58876;51.994;4.472;2022-12-04T07:13:49;3.11;75.21
71175;DHT22;58876;51.994;4.472;2022-12-04T07:16:18;3.04;75.00
71175;DHT22;58876;51.994;4.472;2022-12-04T07:18:44;3.00;75.46
71175;DHT22;58876;51.994;4.472;2022-12-04T07:21:14;2.92;75.65
71175;DHT22;58876;51.994;4.472;2022-12-04T07:23:40;3.04;75.48
71175;DHT22;58876;51.994;4.472;2022-12-04T07:26:08;3.04;75.45
71175;DHT22;58876;51.994;4.472;2022-12-04T07:28:35;3.01;75.79
71175;DHT22;58876;51.994;4.472;2022-12-04T07:31:05;3.08;75.57
71175;DHT22;58876;51.994;4.472;2022-12-04T07:33:32;3.04;75.63
71175;DHT22;58876;51.994;4.472;2022-12-04T07:36:00;3.06;75.64
71175;DHT22;58876;51.994;4.472;2022-12-04T07:38:26;3.10;75.43
71175;DHT22;58876;51.994;4.472;2022-12-04T07:40:55;3.11;75.10
71175;DHT22;58876;51.994;4.472;2022-12-04T07:43:21;3.11;75.01
71175;DHT22;58876;51.994;4.472;2022-12-04T07:45:46;3.04;75.21
71175;DHT22;58876;51.994;4.472;2022-12-04T07:48:12;3.03;74.98
71175;DHT22;58876;51.994;4.472;2022-12-04T07:50:37;3.08;75.09
71175;DHT22;58876;51.994;4.472;2022-12-04T07:53:03;3.13;74.87
71175;DHT22;58876;51.994;4.472;2022-12-04T07:55:28;2.99;74.64
71175;DHT22;58876;51.994;4.472;2022-12-04T07:57:54;2.95;74.74
71175;DHT22;58876;51.994;4.472;2022-12-04T08:00:19;2.92;74.90
71175;DHT22;58876;51.994;4.472;2022-12-04T08:02:45;2.79;75.37
71175;DHT22;58876;51.994;4.472;2022-12-04T08:05:10;2.71;75.55
71175;DHT22;58876;51.994;4.472;2022-12-04T08:07:36;2.65;75.90
71175;DHT22;58876;51.994;4.472;2022-12-04T08:10:01;2.72;75.79
71175;DHT22;58876;51.994;4.472;2022-12-04T08:12:26;2.82;75.78
71175;DHT22;58876;51.994;4.472;2022-12-04T08:14:52;2.82;75.99
71175;DHT22;58876;51.994;4.472;2022-12-04T08:17:17;2.87;75.36
71175;DHT22;58876;51.994;4.472;2022-12-04T08:19:43;2.99;75.30
71175;DHT22;58876;51.994;4.472;2022-12-04T08:22:08;3.04;74.82
71175;DHT22;58876;51.994;4.472;2022-12-04T08:24:34;3.06;74.72
71175;DHT22;58876;51.994;4.472;2022-12-04T08:27:00;2.86;75.46
71175;DHT22;58876;51.994;4.472;2022-12-04T08:29:25;2.92;75.46
71175;DHT22;58876;51.994;4.472;2022-12-04T08:31:51;2.90;75.28
71175;DHT22;58876;51.994;4.472;2022-12-04T08:34:16;2.86;75.59
71175;DHT22;58876;51.994;4.472;2022-12-04T08:36:42;2.79;75.81
71175;DHT22;58876;51.994;4.472;2022-12-04T08:39:09;2.85;75.56
71175;DHT22;58876;51.994;4.472;2022-12-04T08:41:35;2.92;75.34
71175;DHT22;58876;51.994;4.472;2022-12-04T08:44:00;3.04;75.15
71175;DHT22;58876;51.994;4.472;2022-12-04T08:46:27;3.04;74.78
71175;DHT22;58876;51.994;4.472;2022-12-04T08:48:53;2.92;75.39
71175;DHT22;58876;51.994;4.472;2022-12-04T08:51:21;2.97;75.57
71175;DHT22;58876;51.994;4.472;2022-12-04T08:53:47;3.03;75.31
71175;DHT22;58876;51.994;4.472;2022-12-04T08:56:13;3.06;74.88
71175;DHT22;58876;51.994;4.472;2022-12-04T08:58:38;3.10;75.05
71175;DHT22;58876;51.994;4.472;2022-12-04T09:01:07;3.10;74.95
71175;DHT22;58876;51.994;4.472;2022-12-04T09:03:33;3.04;74.93
71175;DHT22;58876;51.994;4.472;2022-12-04T09:06:00;3.07;75.25
71175;DHT22;58876;51.994;4.472;2022-12-04T09:08:26;3.16;74.69
71175;DHT22;58876;51.994;4.472;2022-12-04T09:10:52;3.20;74.71
71175;DHT22;58876;51.994;4.472;2022-12-04T09:13:17;3.27;74.64
71175;DHT22;58876;51.994;4.472;2022-12-04T09:15:43;3.20;74.84
71175;DHT22;58876;51.994;4.472;2022-12-04T09:18:09;3.20;74.71
71175;DHT22;58876;51.994;4.472;2022-12-04T09:20:35;3.17;74.51
71175;DHT22;58876;51.994;4.472;2022-12-04T09:23:02;3.08;74.84
71175;DHT22;58876;51.994;4.472;2022-12-04T09:25:27;3.01;75.28
71175;DHT22;58876;51.994;4.472;2022-12-04T09:27:53;3.14;75.08
71175;DHT22;58876;51.994;4.472;2022-12-04T09:30:18;3.01;75.27
71175;DHT22;58876;51.994;4.472;2022-12-04T09:32:44;3.11;75.30
71175;DHT22;58876;51.994;4.472;2022-12-04T09:35:09;3.21;75.01
71175;DHT22;58876;51.994;4.472;2022-12-04T09:37:34;3.21;74.93
71175;DHT22;58876;51.994;4.472;2022-12-04T09:40:04;3.23;74.66
71175;DHT22;58876;51.994;4.472;2022-12-04T09:45:11;3.34;74.58
71175;DHT22;58876;51.994;4.472;2022-12-04T09:47:54;3.42;74.57
71175;DHT22;58876;51.994;4.472;2022-12-04T09:50:40;3.50;74.23
71175;DHT22;58876;51.994;4.472;2022-12-04T09:53:21;3.38;74.35
71175;DHT22;58876;51.994;4.472;2022-12-04T09:56:05;3.28;74.59
71175;DHT22;58876;51.994;4.472;2022-12-04T09:58:58;3.32;74.60
71175;DHT22;58876;51.994;4.472;2022-12-04T10:01:29;3.39;74.60
71175;DHT22;58876;51.994;4.472;2022-12-04T10:03:57;3.52;74.36
71175;DHT22;58876;51.994;4.472;2022-12-04T10:06:43;3.65;74.04
71175;DHT22;58876;51.994;4.472;2022-12-04T10:09:22;3.61;73.68
71175;DHT22;58876;51.994;4.472;2022-12-04T10:12:21;3.48;73.94
71175;DHT22;58876;51.994;4.472;2022-12-04T10:15:11;3.50;74.01
71175;DHT22;58876;51.994;4.472;2022-12-04T10:25:35;3.62;73.71
71175;DHT22;58876;51.994;4.472;2022-12-04T10:28:30;3.59;73.87
71175;DHT22;58876;51.994;4.472;2022-12-04T10:31:01;3.48;74.30
71175;DHT22;58876;51.994;4.472;2022-12-04T10:33:35;3.58;74.30
71175;DHT22;58876;51.994;4.472;2022-12-04T10:36:02;3.57;73.88
71175;DHT22;58876;51.994;4.472;2022-12-04T10:44:02;3.59;74.11
71175;DHT22;58876;51.994;4.472;2022-12-04T10:46:31;3.59;73.91
71175;DHT22;58876;51.994;4.472;2022-12-04T10:49:05;3.61;73.96
71175;DHT22;58876;51.994;4.472;2022-12-04T10:51:39;3.58;73.88
71175;DHT22;58876;51.994;4.472;2022-12-04T10:54:31;3.55;73.63
71175;DHT22;58876;51.994;4.472;2022-12-04T10:57:10;3.59;73.89
71175;DHT22;58876;51.994;4.472;2022-12-04T10:59:52;3.64;73.91
71175;DHT22;58876;51.994;4.472;2022-12-04T11:04:54;3.71;73.92
71175;DHT22;58876;51.994;4.472;2022-12-04T11:07:23;3.61;74.08
71175;DHT22;58876;51.994;4.472;2022-12-04T11:12:30;3.66;73.71
71175;DHT22;58876;51.994;4.472;2022-12-04T11:15:12;3.66;73.79
71175;DHT22;58876;51.994;4.472;2022-12-04T11:17:38;3.74;73.50
71175;DHT22;58876;51.994;4.472;2022-12-04T11:20:12;3.61;73.85
71175;DHT22;58876;51.994;4.472;2022-12-04T11:22:50;3.71;74.13
71175;DHT22;58876;51.994;4.472;2022-12-04T11:25:18;3.75;74.28
71175;DHT22;58876;51.994;4.472;2022-12-04T11:27:47;3.71;73.55
71175;DHT22;58876;51.994;4.472;2022-12-04T11:30:20;3.75;73.88
71175;DHT22;58876;51.994;4.472;2022-12-04T11:32:46;3.78;73.52
71175;DHT22;58876;51.994;4.472;2022-12-04T11:35:31;3.75;74.16
71175;DHT22;58876;51.994;4.472;2022-12-04T11:38:13;3.69;73.90
71175;DHT22;58876;51.994;4.472;2022-12-04T11:40:48;3.66;74.11
71175;DHT22;58876;51.994;4.472;2022-12-04T11:43:16;3.66;73.72
71175;DHT22;58876;51.994;4.472;2022-12-04T11:45:54;3.72;73.78
71175;DHT22;58876;51.994;4.472;2022-12-04T11:48:20;3.71;73.04
71175;DHT22;58876;51.994;4.472;2022-12-04T11:54:09;3.69;73.47
71175;DHT22;58876;51.994;4.472;2022-12-04T12:01:55;3.55;73.81
71175;DHT22;58876;51.994;4.472;2022-12-04T12:10:28;3.51;74.19
71175;DHT22;58876;51.994;4.472;2022-12-04T12:19:06;3.37;74.50
71175;DHT22;58876;51.994;4.472;2022-12-04T12:27:53;3.27;74.38
71175;DHT22;58876;51.994;4.472;2022-12-04T12:30:28;3.27;74.45
71175;DHT22;58876;51.994;4.472;2022-12-04T12:35:55;3.20;74.80
71175;DHT22;58876;51.994;4.472;2022-12-04T12:38:30;3.01;74.98
71175;DHT22;58876;51.994;4.472;2022-12-04T12:41:08;3.16;75.05
71175;DHT22;58876;51.994;4.472;2022-12-04T12:43:43;3.18;74.60
71175;DHT22;58876;51.994;4.472;2022-12-04T12:46:17;3.24;74.59
71175;DHT22;58876;51.994;4.472;2022-12-04T12:53:43;3.38;74.17
71175;DHT22;58876;51.994;4.472;2022-12-04T12:56:13;3.35;74.32
71175;DHT22;58876;51.994;4.472;2022-12-04T12:58:46;3.32;74.44
71175;DHT22;58876;51.994;4.472;2022-12-04T13:01:18;3.32;74.52
71175;DHT22;58876;51.994;4.472;2022-12-04T13:04:03;3.39;74.32
71175;DHT22;58876;51.994;4.472;2022-12-04T13:06:39;3.35;73.73
71175;DHT22;58876;51.994;4.472;2022-12-04T13:11:31;3.30;73.78
71175;DHT22;58876;51.994;4.472;2022-12-04T13:14:00;3.13;74.33
71175;DHT22;58876;51.994;4.472;2022-12-04T13:19:24;3.18;74.18
71175;DHT22;58876;51.994;4.472;2022-12-04T13:22:17;3.16;74.63
71175;DHT22;58876;51.994;4.472;2022-12-04T13:25:29;3.21;74.77
71175;DHT22;58876;51.994;4.472;2022-12-04T13:30:59;3.23;74.49
71175;DHT22;58876;51.994;4.472;2022-12-04T13:33:51;3.21;74.12
71175;DHT22;58876;51.994;4.472;2022-12-04T13:36:36;3.10;74.15
71175;DHT22;58876;51.994;4.472;2022-12-04T13:41:57;3.21;74.61
71175;DHT22;58876;51.994;4.472;2022-12-04T13:44:25;3.10;74.46
71175;DHT22;58876;51.994;4.472;2022-12-04T13:46:59;3.13;74.66
71175;DHT22;58876;51.994;4.472;2022-12-04T13:49:33;3.26;74.69
71175;DHT22;58876;51.994;4.472;2022-12-04T13:52:03;3.32;74.70
71175;DHT22;58876;51.994;4.472;2022-12-04T13:54:33;3.32;74.52
71175;DHT22;58876;51.994;4.472;2022-12-04T13:59:42;3.16;75.00
71175;DHT22;58876;51.994;4.472;2022-12-04T14:02:22;3.21;75.07
71175;DHT22;58876;51.994;4.472;2022-12-04T14:05:01;3.16;75.10
71175;DHT22;58876;51.994;4.472;2022-12-04T14:07:33;3.31;74.85
71175;DHT22;58876;51.994;4.472;2022-12-04T14:10:06;3.28;74.55
71175;DHT22;58876;51.994;4.472;2022-12-04T14:12:38;3.32;74.36
71175;DHT22;58876;51.994;4.472;2022-12-04T14:17:37;3.44;73.74
71175;DHT22;58876;51.994;4.472;2022-12-04T14:20:07;3.31;73.69
71175;DHT22;58876;51.994;4.472;2022-12-04T14:22:46;3.21;74.11
71175;DHT22;58876;51.994;4.472;2022-12-04T14:30:18;3.24;74.86
71175;DHT22;58876;51.994;4.472;2022-12-04T14:32:46;3.26;74.85
71175;DHT22;58876;51.994;4.472;2022-12-04T14:35:20;3.18;75.06
71175;DHT22;58876;51.994;4.472;2022-12-04T14:37:59;3.13;75.31
71175;DHT22;58876;51.994;4.472;2022-12-04T14:40:29;3.28;74.99
71175;DHT22;58876;51.994;4.472;2022-12-04T14:42:58;3.31;74.62
71175;DHT22;58876;51.994;4.472;2022-12-04T14:45:41;3.38;74.09
71175;DHT22;58876;51.994;4.472;2022-12-04T14:48:35;3.38;74.00
71175;DHT22;58876;51.994;4.472;2022-12-04T14:51:23;3.44;74.36
71175;DHT22;58876;51.994;4.472;2022-12-04T14:54:25;3.45;74.11
71175;DHT22;58876;51.994;4.472;2022-12-04T14:59:50;3.45;74.03
71175;DHT22;58876;51.994;4.472;2022-12-04T15:02:40;3.48;74.02
71175;DHT22;58876;51.994;4.472;2022-12-04T15:05:10;3.47;74.12
71175;DHT22;58876;51.994;4.472;2022-12-04T15:07:46;3.45;74.14
71175;DHT22;58876;51.994;4.472;2022-12-04T15:10:33;3.28;74.42
71175;DHT22;58876;51.994;4.472;2022-12-04T15:13:29;3.21;74.67
71175;DHT22;58876;51.994;4.472;2022-12-04T15:15:55;3.28;74.50
71175;DHT22;58876;51.994;4.472;2022-12-04T15:18:20;3.35;74.61
71175;DHT22;58876;51.994;4.472;2022-12-04T15:23:30;3.34;74.74
71175;DHT22;58876;51.994;4.472;2022-12-04T15:26:03;3.26;74.97
71175;DHT22;58876;51.994;4.472;2022-12-04T15:28:43;3.34;74.76
71175;DHT22;58876;51.994;4.472;2022-12-04T15:31:22;3.31;74.58
71175;DHT22;58876;51.994;4.472;2022-12-04T15:33:58;3.31;74.89
71175;DHT22;58876;51.994;4.472;2022-12-04T15:37:05;3.42;74.60
71175;DHT22;58876;51.994;4.472;2022-12-04T15:39:34;3.41;74.51
71175;DHT22;58876;51.994;4.472;2022-12-04T15:47:30;3.31;75.04
71175;DHT22;58876;51.994;4.472;2022-12-04T15:55:29;3.44;74.50
71175;DHT22;58876;51.994;4.472;2022-12-04T15:58:14;3.39;74.47
71175;DHT22;58876;51.994;4.472;2022-12-04T16:00:41;3.44;74.95
71175;DHT22;58876;51.994;4.472;2022-12-04T16:03:31;3.47;74.59
71175;DHT22;58876;51.994;4.472;2022-12-04T16:08:40;3.48;74.66
71175;DHT22;58876;51.994;4.472;2022-12-04T16:13:49;3.45;74.67
71175;DHT22;58876;51.994;4.472;2022-12-04T16:16:25;3.45;75.06
71175;DHT22;58876;51.994;4.472;2022-12-04T16:18:51;3.50;75.04
71175;DHT22;58876;51.994;4.472;2022-12-04T16:21:21;3.52;74.77
71175;DHT22;58876;51.994;4.472;2022-12-04T16:23:47;3.50;74.68
71175;DHT22;58876;51.994;4.472;2022-12-04T16:26:15;3.52;74.86
71175;DHT22;58876;51.994;4.472;2022-12-04T16:28:40;3.52;74.63
71175;DHT22;58876;51.994;4.472;2022-12-04T16:31:07;3.48;74.84
71175;DHT22;58876;51.994;4.472;2022-12-04T16:33:34;3.51;74.86
71175;DHT22;58876;51.994;4.472;2022-12-04T16:36:00;3.37;74.81
71175;DHT22;58876;51.994;4.472;2022-12-04T16:38:25;3.27;74.96
71175;DHT22;58876;51.994;4.472;2022-12-04T16:40:51;3.20;75.44
71175;DHT22;58876;51.994;4.472;2022-12-04T16:43:16;3.21;75.47
71175;DHT22;58876;51.994;4.472;2022-12-04T16:45:50;3.18;75.80
71175;DHT22;58876;51.994;4.472;2022-12-04T16:48:15;3.30;75.58
71175;DHT22;58876;51.994;4.472;2022-12-04T16:50:41;3.26;75.74
71175;DHT22;58876;51.994;4.472;2022-12-04T16:53:07;3.30;75.77
71175;DHT22;58876;51.994;4.472;2022-12-04T16:55:36;3.30;75.74
71175;DHT22;58876;51.994;4.472;2022-12-04T16:58:03;3.31;75.75
71175;DHT22;58876;51.994;4.472;2022-12-04T17:00:28;3.31;76.01
71175;DHT22;58876;51.994;4.472;2022-12-04T17:02:54;3.37;75.70
71175;DHT22;58876;51.994;4.472;2022-12-04T17:05:25;3.21;75.83
71175;DHT22;58876;51.994;4.472;2022-12-04T17:07:51;3.23;75.87
71175;DHT22;58876;51.994;4.472;2022-12-04T17:10:17;3.23;75.89
71175;DHT22;58876;51.994;4.472;2022-12-04T17:12:43;3.24;75.88
71175;DHT22;58876;51.994;4.472;2022-12-04T17:15:10;3.30;75.92
71175;DHT22;58876;51.994;4.472;2022-12-04T17:17:36;3.26;75.97
71175;DHT22;58876;51.994;4.472;2022-12-04T17:20:02;3.32;75.95
71175;DHT22;58876;51.994;4.472;2022-12-04T17:22:27;3.37;75.80
71175;DHT22;58876;51.994;4.472;2022-12-04T17:24:54;3.47;75.75
71175;DHT22;58876;51.994;4.472;2022-12-04T17:27:21;3.51;75.59
71175;DHT22;58876;51.994;4.472;2022-12-04T17:29:47;3.57;75.41
71175;DHT22;58876;51.994;4.472;2022-12-04T17:32:13;3.59;75.30
71175;DHT22;58876;51.994;4.472;2022-12-04T17:34:38;3.50;75.58
71175;DHT22;58876;51.994;4.472;2022-12-04T17:37:04;3.26;76.08
71175;DHT22;58876;51.994;4.472;2022-12-04T17:39:29;3.27;76.23
71175;DHT22;58876;51.994;4.472;2022-12-04T17:41:55;3.20;76.48
71175;DHT22;58876;51.994;4.472;2022-12-04T17:44:20;3.24;76.50
71175;DHT22;58876;51.994;4.472;2022-12-04T17:46:46;3.24;76.51
71175;DHT22;58876;51.994;4.472;2022-12-04T17:49:11;3.35;76.38
71175;DHT22;58876;51.994;4.472;2022-12-04T17:51:37;3.41;76.12
71175;DHT22;58876;51.994;4.472;2022-12-04T17:54:04;3.42;76.07
71175;DHT22;58876;51.994;4.472;2022-12-04T17:56:31;3.45;75.95
71175;DHT22;58876;51.994;4.472;2022-12-04T17:58:56;3.37;76.47
71175;DHT22;58876;51.994;4.472;2022-12-04T18:01:24;3.45;76.28
71175;DHT22;58876;51.994;4.472;2022-12-04T18:03:55;3.57;75.93
71175;DHT22;58876;51.994;4.472;2022-12-04T18:06:24;3.65;75.85
71175;DHT22;58876;51.994;4.472;2022-12-04T18:08:50;3.64;76.02